Flight Track Log - Related Links

Times and Time Zones

All times are in EDT time to prevent confusion due to time zone crossing. See the ASQ5941 flight status page for this flight to view local times or setup timezone preferences in your user account.

Time Position Orientation Groundspeed Altitude Reporting Facility
EDT Latitude Longitude Course Direction KTS MPH feet Rate Location/Type
Tue 02:52:26 PM 42.0167 -87.9500 90° East 196 226 2,400  Level Chicago TRACON
Tue 02:53:26 PM 42.0833 -87.9000 29° Northeast 252 290 4,500 1,900 Climbing Chicago TRACON
Tue 02:54:26 PM 42.1333 -87.8333 45° Northeast 274 315 6,200 1,843 Climbing Chicago TRACON
Tue 02:55:00 PM 42.0642 -87.2746 78° East  Level FlightAware Approximate
Tue 02:55:33 PM 42.1661 -87.7361 66° East 296 341 8,400  Level Chicago Center
Tue 02:56:00 PM 42.0890 -87.1162 77° East  Level FlightAware Approximate
Tue 02:56:35 PM 42.1547 -87.5969 96° East 309 356 11,100  Level Chicago Center
Tue 02:57:00 PM 42.1055 -86.9565 80° East  Level FlightAware Approximate
Tue 02:57:37 PM 42.1439 -87.4694 96° East 335 386 13,100  Level Chicago Center
Tue 02:58:00 PM 42.1167 -86.7958 90° East  Level FlightAware Approximate
Tue 02:58:39 PM 42.1339 -87.3322 96° East 362 417 14,300  Level Chicago Center
Tue 02:59:40 PM 42.1214 -87.1803 96° East 403 464 15,300 1,220 Climbing Chicago Center
Tue 03:00:42 PM 42.1128 -87.0183 94° East 430 495 16,800 1,355 Climbing Chicago Center
Tue 03:01:44 PM 42.1194 -86.8550 87° East 438 504 18,100 1,500 Climbing Chicago Center
Tue 03:02:46 PM 42.1261 -86.6681 87° East 440 506 19,900 1,645 Climbing Chicago Center
Tue 03:03:48 PM 42.1317 -86.5025 87° East 443 510 21,500 1,512 Climbing Chicago Center
Tue 03:04:49 PM 42.1367 -86.3356 88° East 446 513 23,000 1,512 Climbing Chicago Center
Tue 03:05:51 PM 42.1425 -86.1664 87° East 450 518 24,600 1,548 Climbing Chicago Center
Tue 03:06:53 PM 42.1428 -85.9969 90° East 451 519 26,200 1,597 Climbing Chicago Center
Tue 03:07:55 PM 42.1414 -85.8122 91° East 446 513 27,900 1,561 Climbing Chicago Center
Tue 03:08:56 PM 42.1392 -85.6478 91° East 442 509 29,400 1,415 Climbing Chicago Center
Tue 03:09:58 PM 42.1364 -85.4842 91° East 440 506 30,800 1,306 Climbing Chicago Center
Tue 03:11:00 PM 42.1344 -85.3208 91° East 439 505 32,100 1,210 Climbing Chicago Center
Tue 03:12:02 PM 42.1350 -85.1531 90° East 449 517 33,300 1,171 Climbing Chicago Center
Tue 03:13:03 PM 42.1350 -84.9603 90° East 440 506 34,500 843 Climbing Cleveland Center
Tue 03:14:03 PM 42.1347 -84.8006 90° East 440 506 35,000 250 Climbing Cleveland Center
Tue 03:15:03 PM 42.1294 -84.6544 93° East 450 518 35,000  Level Cleveland Center
Tue 03:16:03 PM 42.1289 -84.4361 90° East 473 544 35,000  Level Cleveland Center
Tue 03:17:03 PM 42.1428 -84.2658 84° East 489 563 35,000  Level Cleveland Center
Tue 03:18:03 PM 42.1656 -84.0711 81° East 514 592 35,000  Level Cleveland Center
Tue 03:19:03 PM 42.1858 -83.8733 82° East 525 604 35,000 400 Level Cleveland Center
Tue 03:20:03 PM 42.2014 -83.6861 84° East 516 594 35,800 500 Climbing Cleveland Center
Tue 03:21:03 PM 42.1961 -83.4925 92° East 511 588 36,000 100 Climbing Cleveland Center
Tue 03:22:03 PM 42.1883 -83.2986 93° East 517 595 36,000  Level Cleveland Center
Tue 03:23:03 PM 42.1808 -83.0769 93° East 523 602 36,000  Level Cleveland Center
Tue 03:24:03 PM 42.1725 -82.8833 93° East 523 602 36,000  Level Cleveland Center
Tue 03:25:03 PM 42.1678 -82.6928 92° East 517 595 36,000 350 Level Cleveland Center
Tue 03:26:03 PM 42.1586 -82.5019 94° East 517 595 36,700 500 Climbing Cleveland Center
Tue 03:27:03 PM 42.1511 -82.3167 93° East 512 589 37,000 150 Climbing Cleveland Center
Tue 03:28:03 PM 42.1433 -82.1289 93° East 507 583 37,000  Level Cleveland Center
Tue 03:29:03 PM 42.1333 -81.9383 94° East 502 578 37,000  Level Cleveland Center
Tue 03:30:03 PM 42.1269 -81.7675 93° East 502 578 37,000  Level Cleveland Center
Tue 03:31:03 PM 42.1142 -81.5739 95° East 509 586 37,000  Level Cleveland Center
Tue 03:32:03 PM 42.1053 -81.3836 94° East 509 586 37,000  Level Cleveland Center
Tue 03:33:03 PM 42.0939 -81.1958 95° East 509 586 37,000  Level Cleveland Center
Tue 03:34:03 PM 42.0822 -81.0056 95° East 506 582 37,000  Level Cleveland Center
Tue 03:35:03 PM 42.0744 -80.8069 93° East 501 577 37,000  Level Cleveland Center
Tue 03:36:03 PM 42.0622 -80.6139 95° East 501 577 37,000  Level Cleveland Center
Tue 03:37:03 PM 42.0517 -80.4267 94° East 501 577 37,000  Level Cleveland Center
Tue 03:38:03 PM 42.0408 -80.2336 94° East 501 577 37,000  Level Cleveland Center
Tue 03:39:03 PM 42.0275 -80.0436 95° East 506 582 37,000  Level Cleveland Center
Tue 03:40:03 PM 42.0161 -79.8761 95° East 501 577 37,000 -250 Level Cleveland Center
Tue 03:41:03 PM 42.0044 -79.6861 95° East 501 577 36,500 -750 Descending Cleveland Center
Tue 03:42:03 PM 41.9925 -79.4992 95° East 501 577 35,500 -1,000 Descending Cleveland Center
Tue 03:43:03 PM 41.9781 -79.3122 96° East 501 577 34,500 -1,050 Descending Cleveland Center
Tue 03:44:03 PM 41.9631 -79.1172 96° East 501 577 33,400 -1,100 Descending Cleveland Center
Tue 03:45:03 PM 41.9503 -78.9303 95° East 506 582 32,300 -1,150 Descending Cleveland Center
Tue 03:46:03 PM 41.9369 -78.7408 95° East 506 582 31,100 -1,400 Descending Cleveland Center
Tue 03:47:03 PM 41.9211 -78.5461 96° East 512 589 29,500 -1,600 Descending Cleveland Center
Tue 03:48:03 PM 41.9050 -78.3567 96° East 512 589 27,900 -1,500 Descending Cleveland Center
Tue 03:49:03 PM 41.8908 -78.1703 96° East 512 589 26,500 -1,350 Descending Cleveland Center
Tue 03:50:03 PM 41.8742 -77.9814 97° East 512 589 25,200 -1,333 Descending Cleveland Center
Tue 03:50:24 PM 41.8692 -77.9097 95° East 508 585 24,700 -1,215 Descending New York Center
Tue 03:51:22 PM 41.8278 -77.7661 111° Southeast 484 557 23,600 -864 Descending New York Center
Tue 03:52:22 PM 41.7681 -77.6097 117° Southeast 464 534 23,000 -347 Descending New York Center
Tue 03:53:23 PM 41.7028 -77.4389 117° Southeast 470 541 22,900 -694 Descending New York Center
Tue 03:54:23 PM 41.6750 -77.2639 102° East 470 541 21,600 -1,150 Descending New York Center
Tue 03:55:23 PM 41.6592 -77.0958 97° East 470 541 20,600 -1,289 Descending New York Center
Tue 03:56:24 PM 41.6411 -76.9247 98° East 458 527 19,000 -1,636 Descending New York Center
Tue 03:57:24 PM 41.6244 -76.7594 98° East 450 518 17,300 -1,983 Descending New York Center
Tue 03:58:22 PM 41.6053 -76.6025 99° East 439 505 15,100 -2,339 Descending New York Center
Tue 03:59:22 PM 41.5875 -76.4511 99° East 426 490 12,700 -1,934 Descending New York Center
Tue 04:00:23 PM 41.5728 -76.3250 99° East 396 456 11,200 -1,537 Descending New York Center
Tue 04:01:23 PM 41.5597 -76.1992 98° East 359 413 9,600 -1,815 Descending New York Center
Tue 04:02:22 PM 41.5339 -76.0806 106° East 312 359 7,600 -1,700 Descending New York Center
Tue 04:03:23 PM 41.5081 -76.0067 115° Southeast 283 326 6,200 -1,488 Descending New York Center
Tue 04:04:23 PM 41.5131 -75.8933 87° East 270 311 4,600 -1,109 Descending New York Center
Tue 04:05:22 PM 41.5233 -75.7944 82° East 275 316 4,000 -303 Descending New York Center
Tue 04:06:22 PM 41.5314 -75.7036 83° East 260 299 4,000 -149 Level New York Center
Tue 04:07:23 PM 41.5081 -75.6161 110° East 232 267 3,700 -148 Descending New York Center
Tue 04:08:24 PM 41.4667 -75.6103 174° South 162 186 3,700 -403 Level New York Center
Tue 04:09:22 PM 41.4275 -75.6461 214° Southwest 147 169 2,900 -857 Descending New York Center
Tue 04:10:23 PM 41.3886 -75.6819 215° Southwest 164 189 2,000 -639 Descending New York Center
Tue 04:11:24 PM 41.3478 -75.7122 209° Southwest 164 189 1,600 -393 Descending New York Center
Tue 04:13:00 PM 41.3333 -75.7167 213° Southwest  Level FlightAware Approximate

Login

Don't have an account? Register now (free) for customized features, flight alerts, and more!